OISL  Lar  Airport

Lar, Iran

Add Bookmark
ICAO OISL
IATA LRR
Type Airport
Status Operational
Latitude
27° 40' 28" N
27.674700
Longitude
54° 22' 59" E
54.383301
Local (GMT +4.5 ) UTC
Aug 27, 2016 07:34 pm Aug 27, 2016 15:04
Sunrise-Sunset Local UTC
Begin Civil Twilight 06:04 am 01:34
Sunrise 06:28 am 01:58
Sunset 07:19 pm 14:49
End Civil Twilight 07:43 pm 15:13
VFR
VFR
MVFR
MVFR
IFR
IFR
LIFR
LIFR
Unknown
Unavailable

Current Weather

METAR Observed VFR
OISL 271400Z 00000KT CAVOK 39/01 Q1007 Sat, Aug 27, 2016 @ 14:00 UTC
(1 Hour, 4 Minutes ago)
Visual Flight Rules
Wind Visibility Conditions
Calm 10 km or more
  • No significant weather
Temperatures Readings Precipitation
Current Temp
39°C
102°F
Dewpoint
1°C
34°F
Humidity 9%
Altimeter 29.73" Hg
Sea Level Pressure 1,007 mb
Field Elevation
805 m
2,641 ft
None Recorded

Forecast Weather

TAF
TAF OISL 271130Z 2712/2818 VRB03MPS CAVOK
From To
Sat, Aug 27, 2016 @ 12:00 UTC Sun, Aug 28, 2016 @ 18:00 UTC
Wind Visibility Conditions
Varies at 6 knots (11 kph) 10 km or more
  • No significant weather
-
-

CheckWX.com is intended as a tool to help pilots better visualize weather data. It is not intended as a substitute for an official weather briefing obtained from a Flight Service Station. CheckWX.com does not meet the FAA requirements for an official pre-flight weather briefing. Therefore, it's important that pilots still call and obtain an official FSS pre-flight weather briefing.

© 2007-2016 CheckWX.com
15:04:23 UTC